sensor_id;sensor_type;location;lat;lon;timestamp;P1;durP1;ratioP1;P2;durP2;ratioP2
52041;SDS011;38052;45.944;13.624;2024-03-07T00:00:34;14.20;;;8.77;;
52041;SDS011;38052;45.944;13.624;2024-03-07T00:03:00;10.98;;;8.30;;
52041;SDS011;38052;45.944;13.624;2024-03-07T00:05:26;13.50;;;8.05;;
52041;SDS011;38052;45.944;13.624;2024-03-07T00:07:53;12.52;;;9.25;;
52041;SDS011;38052;45.944;13.624;2024-03-07T00:10:19;15.80;;;10.25;;
52041;SDS011;38052;45.944;13.624;2024-03-07T00:12:48;16.42;;;9.80;;
52041;SDS011;38052;45.944;13.624;2024-03-07T00:15:14;15.27;;;10.90;;
52041;SDS011;38052;45.944;13.624;2024-03-07T00:17:40;15.60;;;10.13;;
52041;SDS011;38052;45.944;13.624;2024-03-07T00:20:07;15.88;;;9.88;;
52041;SDS011;38052;45.944;13.624;2024-03-07T00:22:37;10.68;;;8.05;;
52041;SDS011;38052;45.944;13.624;2024-03-07T00:25:04;15.60;;;8.63;;
52041;SDS011;38052;45.944;13.624;2024-03-07T00:27:31;12.02;;;8.13;;
52041;SDS011;38052;45.944;13.624;2024-03-07T00:29:57;11.43;;;7.85;;
52041;SDS011;38052;45.944;13.624;2024-03-07T00:32:24;8.93;;;6.97;;
52041;SDS011;38052;45.944;13.624;2024-03-07T00:34:52;13.75;;;8.27;;
52041;SDS011;38052;45.944;13.624;2024-03-07T00:37:18;11.57;;;8.70;;
52041;SDS011;38052;45.944;13.624;2024-03-07T00:39:45;15.20;;;8.95;;
52041;SDS011;38052;45.944;13.624;2024-03-07T00:42:11;12.13;;;8.55;;
52041;SDS011;38052;45.944;13.624;2024-03-07T00:44:38;9.82;;;8.02;;
52041;SDS011;38052;45.944;13.624;2024-03-07T00:47:04;10.63;;;7.18;;
52041;SDS011;38052;45.944;13.624;2024-03-07T00:49:31;11.65;;;7.45;;
52041;SDS011;38052;45.944;13.624;2024-03-07T00:51:58;8.77;;;5.75;;
52041;SDS011;38052;45.944;13.624;2024-03-07T00:54:25;9.13;;;6.03;;
52041;SDS011;38052;45.944;13.624;2024-03-07T00:56:51;11.35;;;5.72;;
52041;SDS011;38052;45.944;13.624;2024-03-07T00:59:18;8.50;;;5.85;;
52041;SDS011;38052;45.944;13.624;2024-03-07T01:01:44;8.35;;;5.93;;
52041;SDS011;38052;45.944;13.624;2024-03-07T01:04:11;9.90;;;5.55;;
52041;SDS011;38052;45.944;13.624;2024-03-07T01:06:37;8.10;;;5.60;;
52041;SDS011;38052;45.944;13.624;2024-03-07T01:09:05;9.80;;;5.30;;
52041;SDS011;38052;45.944;13.624;2024-03-07T01:11:39;6.85;;;5.43;;
52041;SDS011;38052;45.944;13.624;2024-03-07T01:14:05;7.85;;;5.70;;
52041;SDS011;38052;45.944;13.624;2024-03-07T01:16:31;11.15;;;5.82;;
52041;SDS011;38052;45.944;13.624;2024-03-07T01:18:58;8.55;;;4.85;;
52041;SDS011;38052;45.944;13.624;2024-03-07T01:21:25;7.88;;;5.72;;
52041;SDS011;38052;45.944;13.624;2024-03-07T01:23:51;12.95;;;5.75;;
52041;SDS011;38052;45.944;13.624;2024-03-07T01:26:17;6.75;;;5.28;;
52041;SDS011;38052;45.944;13.624;2024-03-07T01:28:44;8.40;;;5.32;;
52041;SDS011;38052;45.944;13.624;2024-03-07T01:31:10;12.07;;;6.30;;
52041;SDS011;38052;45.944;13.624;2024-03-07T01:33:37;8.10;;;5.15;;
52041;SDS011;38052;45.944;13.624;2024-03-07T01:36:03;10.20;;;5.78;;
52041;SDS011;38052;45.944;13.624;2024-03-07T01:38:30;6.57;;;4.85;;
52041;SDS011;38052;45.944;13.624;2024-03-07T01:40:57;7.63;;;5.22;;
52041;SDS011;38052;45.944;13.624;2024-03-07T01:43:23;9.80;;;5.75;;
52041;SDS011;38052;45.944;13.624;2024-03-07T01:45:50;9.70;;;5.13;;
52041;SDS011;38052;45.944;13.624;2024-03-07T01:48:22;10.55;;;6.05;;
52041;SDS011;38052;45.944;13.624;2024-03-07T01:50:51;8.77;;;6.03;;
52041;SDS011;38052;45.944;13.624;2024-03-07T01:53:17;9.35;;;5.70;;
52041;SDS011;38052;45.944;13.624;2024-03-07T01:55:45;9.07;;;5.43;;
52041;SDS011;38052;45.944;13.624;2024-03-07T01:58:11;13.60;;;5.28;;
52041;SDS011;38052;45.944;13.624;2024-03-07T02:00:40;8.70;;;5.25;;
52041;SDS011;38052;45.944;13.624;2024-03-07T02:03:06;9.07;;;6.15;;
52041;SDS011;38052;45.944;13.624;2024-03-07T02:05:33;8.50;;;5.25;;
52041;SDS011;38052;45.944;13.624;2024-03-07T02:08:00;7.40;;;5.38;;
52041;SDS011;38052;45.944;13.624;2024-03-07T02:10:27;10.52;;;6.15;;
52041;SDS011;38052;45.944;13.624;2024-03-07T02:12:53;8.35;;;5.82;;
52041;SDS011;38052;45.944;13.624;2024-03-07T02:15:20;10.30;;;5.65;;
52041;SDS011;38052;45.944;13.624;2024-03-07T02:17:47;13.45;;;6.57;;
52041;SDS011;38052;45.944;13.624;2024-03-07T02:20:14;10.90;;;7.00;;
52041;SDS011;38052;45.944;13.624;2024-03-07T02:22:41;10.93;;;5.93;;
52041;SDS011;38052;45.944;13.624;2024-03-07T02:25:07;8.88;;;6.38;;
52041;SDS011;38052;45.944;13.624;2024-03-07T02:27:36;8.68;;;6.28;;
52041;SDS011;38052;45.944;13.624;2024-03-07T02:30:03;13.35;;;6.90;;
52041;SDS011;38052;45.944;13.624;2024-03-07T02:32:30;9.10;;;5.72;;
52041;SDS011;38052;45.944;13.624;2024-03-07T02:34:58;9.55;;;6.55;;
52041;SDS011;38052;45.944;13.624;2024-03-07T02:37:24;8.48;;;6.88;;
52041;SDS011;38052;45.944;13.624;2024-03-07T02:39:51;7.72;;;5.47;;
52041;SDS011;38052;45.944;13.624;2024-03-07T02:42:18;9.70;;;7.32;;
52041;SDS011;38052;45.944;13.624;2024-03-07T02:44:44;9.43;;;6.90;;
52041;SDS011;38052;45.944;13.624;2024-03-07T02:47:10;9.23;;;5.90;;
52041;SDS011;38052;45.944;13.624;2024-03-07T02:49:37;7.88;;;6.25;;
52041;SDS011;38052;45.944;13.624;2024-03-07T02:52:03;9.13;;;6.07;;
52041;SDS011;38052;45.944;13.624;2024-03-07T02:54:33;7.55;;;5.32;;
52041;SDS011;38052;45.944;13.624;2024-03-07T02:56:59;8.55;;;5.70;;
52041;SDS011;38052;45.944;13.624;2024-03-07T02:59:25;9.23;;;6.45;;
52041;SDS011;38052;45.944;13.624;2024-03-07T03:01:52;10.52;;;6.50;;
52041;SDS011;38052;45.944;13.624;2024-03-07T03:04:18;12.52;;;6.85;;
52041;SDS011;38052;45.944;13.624;2024-03-07T03:06:45;11.80;;;6.30;;
52041;SDS011;38052;45.944;13.624;2024-03-07T03:09:12;12.43;;;6.70;;
52041;SDS011;38052;45.944;13.624;2024-03-07T03:11:42;10.43;;;6.75;;
52041;SDS011;38052;45.944;13.624;2024-03-07T03:14:09;9.52;;;6.43;;
52041;SDS011;38052;45.944;13.624;2024-03-07T03:16:41;10.98;;;5.05;;
52041;SDS011;38052;45.944;13.624;2024-03-07T03:19:08;10.25;;;6.85;;
52041;SDS011;38052;45.944;13.624;2024-03-07T03:21:35;9.65;;;6.30;;
52041;SDS011;38052;45.944;13.624;2024-03-07T03:24:01;10.50;;;6.43;;
52041;SDS011;38052;45.944;13.624;2024-03-07T03:26:28;12.30;;;6.88;;
52041;SDS011;38052;45.944;13.624;2024-03-07T03:28:56;9.80;;;6.22;;
52041;SDS011;38052;45.944;13.624;2024-03-07T03:31:23;7.97;;;5.97;;
52041;SDS011;38052;45.944;13.624;2024-03-07T03:33:50;8.95;;;5.93;;
52041;SDS011;38052;45.944;13.624;2024-03-07T03:36:17;7.68;;;5.78;;
52041;SDS011;38052;45.944;13.624;2024-03-07T03:38:44;8.85;;;6.07;;
52041;SDS011;38052;45.944;13.624;2024-03-07T03:41:14;9.18;;;6.47;;
52041;SDS011;38052;45.944;13.624;2024-03-07T03:43:40;10.98;;;7.03;;
52041;SDS011;38052;45.944;13.624;2024-03-07T03:46:09;7.95;;;5.93;;
52041;SDS011;38052;45.944;13.624;2024-03-07T03:48:35;10.95;;;5.90;;
52041;SDS011;38052;45.944;13.624;2024-03-07T03:51:02;7.97;;;5.82;;
52041;SDS011;38052;45.944;13.624;2024-03-07T03:53:29;9.40;;;6.18;;
52041;SDS011;38052;45.944;13.624;2024-03-07T03:55:55;10.88;;;6.70;;
52041;SDS011;38052;45.944;13.624;2024-03-07T03:58:22;9.95;;;7.07;;
52041;SDS011;38052;45.944;13.624;2024-03-07T04:00:48;8.63;;;6.35;;
52041;SDS011;38052;45.944;13.624;2024-03-07T04:03:15;14.48;;;6.05;;
52041;SDS011;38052;45.944;13.624;2024-03-07T04:05:41;9.52;;;5.93;;
52041;SDS011;38052;45.944;13.624;2024-03-07T04:08:07;8.30;;;6.50;;
52041;SDS011;38052;45.944;13.624;2024-03-07T04:10:34;10.50;;;6.18;;
52041;SDS011;38052;45.944;13.624;2024-03-07T04:13:01;9.75;;;7.00;;
52041;SDS011;38052;45.944;13.624;2024-03-07T04:15:28;9.13;;;6.20;;
52041;SDS011;38052;45.944;13.624;2024-03-07T04:17:56;7.93;;;6.10;;
52041;SDS011;38052;45.944;13.624;2024-03-07T04:20:23;8.73;;;6.15;;
52041;SDS011;38052;45.944;13.624;2024-03-07T04:22:49;9.45;;;7.75;;
52041;SDS011;38052;45.944;13.624;2024-03-07T04:25:16;10.60;;;7.63;;
52041;SDS011;38052;45.944;13.624;2024-03-07T04:27:43;11.43;;;7.53;;
52041;SDS011;38052;45.944;13.624;2024-03-07T04:30:09;14.32;;;9.48;;
52041;SDS011;38052;45.944;13.624;2024-03-07T04:32:38;12.00;;;8.40;;
52041;SDS011;38052;45.944;13.624;2024-03-07T04:35:07;11.80;;;7.85;;
52041;SDS011;38052;45.944;13.624;2024-03-07T04:37:35;13.15;;;8.73;;
52041;SDS011;38052;45.944;13.624;2024-03-07T04:40:05;11.50;;;8.15;;
52041;SDS011;38052;45.944;13.624;2024-03-07T04:42:43;12.95;;;8.68;;
52041;SDS011;38052;45.944;13.624;2024-03-07T04:45:10;13.00;;;8.90;;
52041;SDS011;38052;45.944;13.624;2024-03-07T04:47:41;12.27;;;8.88;;
52041;SDS011;38052;45.944;13.624;2024-03-07T04:50:11;11.98;;;9.15;;
52041;SDS011;38052;45.944;13.624;2024-03-07T04:52:38;15.07;;;9.38;;
52041;SDS011;38052;45.944;13.624;2024-03-07T04:55:05;11.00;;;8.05;;
52041;SDS011;38052;45.944;13.624;2024-03-07T04:57:33;14.15;;;8.30;;
52041;SDS011;38052;45.944;13.624;2024-03-07T05:00:00;12.52;;;7.78;;
52041;SDS011;38052;45.944;13.624;2024-03-07T05:02:26;10.40;;;8.23;;
52041;SDS011;38052;45.944;13.624;2024-03-07T05:04:53;8.65;;;7.50;;
52041;SDS011;38052;45.944;13.624;2024-03-07T05:07:19;12.02;;;7.82;;
52041;SDS011;38052;45.944;13.624;2024-03-07T05:09:46;12.70;;;8.10;;
52041;SDS011;38052;45.944;13.624;2024-03-07T05:12:13;12.93;;;7.85;;
52041;SDS011;38052;45.944;13.624;2024-03-07T05:14:39;12.38;;;7.57;;
52041;SDS011;38052;45.944;13.624;2024-03-07T05:17:06;11.30;;;8.45;;
52041;SDS011;38052;45.944;13.624;2024-03-07T05:19:36;13.00;;;8.77;;
52041;SDS011;38052;45.944;13.624;2024-03-07T05:22:02;11.63;;;7.60;;
52041;SDS011;38052;45.944;13.624;2024-03-07T05:24:32;11.60;;;6.78;;
52041;SDS011;38052;45.944;13.624;2024-03-07T05:26:59;13.18;;;7.75;;
52041;SDS011;38052;45.944;13.624;2024-03-07T05:29:25;12.80;;;7.82;;
52041;SDS011;38052;45.944;13.624;2024-03-07T05:31:52;10.80;;;6.80;;
52041;SDS011;38052;45.944;13.624;2024-03-07T05:34:18;12.55;;;7.18;;
52041;SDS011;38052;45.944;13.624;2024-03-07T05:36:45;13.95;;;8.68;;
52041;SDS011;38052;45.944;13.624;2024-03-07T05:39:12;9.85;;;7.50;;
52041;SDS011;38052;45.944;13.624;2024-03-07T05:41:39;12.23;;;7.80;;
52041;SDS011;38052;45.944;13.624;2024-03-07T05:44:05;14.23;;;7.22;;
52041;SDS011;38052;45.944;13.624;2024-03-07T05:46:36;8.93;;;6.60;;
52041;SDS011;38052;45.944;13.624;2024-03-07T05:49:06;12.02;;;7.13;;
52041;SDS011;38052;45.944;13.624;2024-03-07T05:51:33;12.75;;;6.55;;
52041;SDS011;38052;45.944;13.624;2024-03-07T05:53:59;11.30;;;6.45;;
52041;SDS011;38052;45.944;13.624;2024-03-07T05:56:26;10.68;;;6.75;;
52041;SDS011;38052;45.944;13.624;2024-03-07T05:58:52;10.50;;;6.38;;
52041;SDS011;38052;45.944;13.624;2024-03-07T06:01:19;9.27;;;6.47;;
52041;SDS011;38052;45.944;13.624;2024-03-07T06:03:45;13.50;;;6.38;;
52041;SDS011;38052;45.944;13.624;2024-03-07T06:06:13;11.90;;;6.47;;
52041;SDS011;38052;45.944;13.624;2024-03-07T06:08:39;15.00;;;7.07;;
52041;SDS011;38052;45.944;13.624;2024-03-07T06:11:08;10.40;;;6.10;;
52041;SDS011;38052;45.944;13.624;2024-03-07T06:13:35;9.55;;;7.18;;
52041;SDS011;38052;45.944;13.624;2024-03-07T06:16:02;10.23;;;6.97;;
52041;SDS011;38052;45.944;13.624;2024-03-07T06:18:32;9.18;;;6.45;;
52041;SDS011;38052;45.944;13.624;2024-03-07T06:20:59;8.88;;;6.07;;
52041;SDS011;38052;45.944;13.624;2024-03-07T06:23:25;11.88;;;6.88;;
52041;SDS011;38052;45.944;13.624;2024-03-07T06:25:53;10.18;;;6.97;;
52041;SDS011;38052;45.944;13.624;2024-03-07T06:28:21;13.07;;;7.28;;
52041;SDS011;38052;45.944;13.624;2024-03-07T06:30:47;9.82;;;6.85;;
52041;SDS011;38052;45.944;13.624;2024-03-07T06:33:14;14.52;;;7.50;;
52041;SDS011;38052;45.944;13.624;2024-03-07T06:35:41;12.82;;;7.22;;
52041;SDS011;38052;45.944;13.624;2024-03-07T06:38:11;10.40;;;6.40;;
52041;SDS011;38052;45.944;13.624;2024-03-07T06:40:38;10.10;;;6.43;;
52041;SDS011;38052;45.944;13.624;2024-03-07T06:43:10;12.43;;;6.78;;
52041;SDS011;38052;45.944;13.624;2024-03-07T06:45:36;10.45;;;6.75;;
52041;SDS011;38052;45.944;13.624;2024-03-07T06:48:06;11.68;;;6.97;;
52041;SDS011;38052;45.944;13.624;2024-03-07T06:50:33;9.75;;;6.47;;
52041;SDS011;38052;45.944;13.624;2024-03-07T06:52:59;15.07;;;7.07;;
52041;SDS011;38052;45.944;13.624;2024-03-07T06:55:26;11.82;;;6.75;;
52041;SDS011;38052;45.944;13.624;2024-03-07T06:57:53;12.70;;;6.90;;
52041;SDS011;38052;45.944;13.624;2024-03-07T07:00:19;9.88;;;6.60;;
52041;SDS011;38052;45.944;13.624;2024-03-07T07:02:46;14.15;;;7.25;;
52041;SDS011;38052;45.944;13.624;2024-03-07T07:05:12;14.52;;;6.68;;
52041;SDS011;38052;45.944;13.624;2024-03-07T07:07:49;10.80;;;6.57;;
52041;SDS011;38052;45.944;13.624;2024-03-07T07:10:16;12.88;;;7.32;;
52041;SDS011;38052;45.944;13.624;2024-03-07T07:12:45;11.75;;;7.32;;
52041;SDS011;38052;45.944;13.624;2024-03-07T07:15:13;13.95;;;7.57;;
52041;SDS011;38052;45.944;13.624;2024-03-07T07:17:40;9.77;;;6.88;;
52041;SDS011;38052;45.944;13.624;2024-03-07T07:20:07;10.80;;;7.55;;
52041;SDS011;38052;45.944;13.624;2024-03-07T07:22:38;11.82;;;7.90;;
52041;SDS011;38052;45.944;13.624;2024-03-07T07:25:05;13.45;;;7.85;;
52041;SDS011;38052;45.944;13.624;2024-03-07T07:27:38;10.88;;;6.20;;
52041;SDS011;38052;45.944;13.624;2024-03-07T07:30:05;10.60;;;7.25;;
52041;SDS011;38052;45.944;13.624;2024-03-07T07:32:32;10.38;;;7.45;;
52041;SDS011;38052;45.944;13.624;2024-03-07T07:34:58;13.68;;;7.47;;
52041;SDS011;38052;45.944;13.624;2024-03-07T07:37:25;13.45;;;8.40;;
52041;SDS011;38052;45.944;13.624;2024-03-07T07:39:51;13.27;;;7.30;;
52041;SDS011;38052;45.944;13.624;2024-03-07T07:42:18;14.07;;;7.95;;
52041;SDS011;38052;45.944;13.624;2024-03-07T07:44:45;10.38;;;7.15;;
52041;SDS011;38052;45.944;13.624;2024-03-07T07:47:11;12.65;;;7.35;;
52041;SDS011;38052;45.944;13.624;2024-03-07T07:49:38;12.85;;;7.38;;
52041;SDS011;38052;45.944;13.624;2024-03-07T07:52:05;12.95;;;7.28;;
52041;SDS011;38052;45.944;13.624;2024-03-07T07:54:33;11.75;;;6.78;;
52041;SDS011;38052;45.944;13.624;2024-03-07T07:56:59;11.20;;;6.93;;
52041;SDS011;38052;45.944;13.624;2024-03-07T07:59:27;11.88;;;7.00;;
52041;SDS011;38052;45.944;13.624;2024-03-07T08:01:53;12.55;;;7.97;;
52041;SDS011;38052;45.944;13.624;2024-03-07T08:04:20;11.35;;;7.30;;
52041;SDS011;38052;45.944;13.624;2024-03-07T08:06:46;12.50;;;7.30;;
52041;SDS011;38052;45.944;13.624;2024-03-07T08:09:13;18.27;;;8.32;;
52041;SDS011;38052;45.944;13.624;2024-03-07T08:11:41;14.30;;;7.75;;
52041;SDS011;38052;45.944;13.624;2024-03-07T08:14:08;12.30;;;7.68;;
52041;SDS011;38052;45.944;13.624;2024-03-07T08:16:34;11.93;;;7.47;;
52041;SDS011;38052;45.944;13.624;2024-03-07T08:19:01;9.93;;;6.90;;
52041;SDS011;38052;45.944;13.624;2024-03-07T08:21:28;11.48;;;7.95;;
52041;SDS011;38052;45.944;13.624;2024-03-07T08:23:56;16.48;;;8.27;;
52041;SDS011;38052;45.944;13.624;2024-03-07T08:26:23;12.95;;;7.47;;
52041;SDS011;38052;45.944;13.624;2024-03-07T08:28:49;13.68;;;8.50;;
52041;SDS011;38052;45.944;13.624;2024-03-07T08:31:16;10.02;;;7.50;;
52041;SDS011;38052;45.944;13.624;2024-03-07T08:33:43;11.15;;;8.07;;
52041;SDS011;38052;45.944;13.624;2024-03-07T08:36:11;12.15;;;7.53;;
52041;SDS011;38052;45.944;13.624;2024-03-07T08:38:37;10.60;;;7.65;;
52041;SDS011;38052;45.944;13.624;2024-03-07T08:41:04;11.32;;;7.95;;
52041;SDS011;38052;45.944;13.624;2024-03-07T08:43:31;13.90;;;9.35;;
52041;SDS011;38052;45.944;13.624;2024-03-07T08:45:57;12.05;;;7.28;;
52041;SDS011;38052;45.944;13.624;2024-03-07T08:48:24;10.85;;;8.00;;
52041;SDS011;38052;45.944;13.624;2024-03-07T08:50:51;11.00;;;7.45;;
52041;SDS011;38052;45.944;13.624;2024-03-07T08:53:17;13.55;;;8.48;;
52041;SDS011;38052;45.944;13.624;2024-03-07T08:55:44;10.25;;;6.97;;
52041;SDS011;38052;45.944;13.624;2024-03-07T08:58:10;11.38;;;7.85;;
52041;SDS011;38052;45.944;13.624;2024-03-07T09:00:37;12.27;;;7.18;;
52041;SDS011;38052;45.944;13.624;2024-03-07T09:03:03;10.70;;;7.13;;
52041;SDS011;38052;45.944;13.624;2024-03-07T09:05:34;11.65;;;6.53;;
52041;SDS011;38052;45.944;13.624;2024-03-07T09:08:01;9.32;;;6.47;;
52041;SDS011;38052;45.944;13.624;2024-03-07T09:10:28;10.15;;;6.65;;
52041;SDS011;38052;45.944;13.624;2024-03-07T09:12:54;13.38;;;7.22;;
52041;SDS011;38052;45.944;13.624;2024-03-07T09:15:21;8.32;;;6.18;;
52041;SDS011;38052;45.944;13.624;2024-03-07T09:17:47;8.75;;;6.00;;
52041;SDS011;38052;45.944;13.624;2024-03-07T09:20:14;9.50;;;6.78;;
52041;SDS011;38052;45.944;13.624;2024-03-07T09:22:44;9.52;;;6.60;;
52041;SDS011;38052;45.944;13.624;2024-03-07T09:25:11;11.13;;;6.45;;
52041;SDS011;38052;45.944;13.624;2024-03-07T09:27:41;9.55;;;6.20;;
52041;SDS011;38052;45.944;13.624;2024-03-07T09:30:08;9.63;;;6.50;;
52041;SDS011;38052;45.944;13.624;2024-03-07T09:32:40;8.95;;;6.32;;
52041;SDS011;38052;45.944;13.624;2024-03-07T09:35:09;8.20;;;6.57;;
52041;SDS011;38052;45.944;13.624;2024-03-07T09:37:39;8.18;;;5.97;;
52041;SDS011;38052;45.944;13.624;2024-03-07T09:40:06;7.28;;;5.68;;
52041;SDS011;38052;45.944;13.624;2024-03-07T09:42:34;10.45;;;6.00;;
52041;SDS011;38052;45.944;13.624;2024-03-07T09:45:01;11.10;;;6.70;;
52041;SDS011;38052;45.944;13.624;2024-03-07T09:47:28;7.28;;;5.43;;
52041;SDS011;38052;45.944;13.624;2024-03-07T09:49:54;14.40;;;7.18;;
52041;SDS011;38052;45.944;13.624;2024-03-07T09:52:22;10.38;;;6.05;;
52041;SDS011;38052;45.944;13.624;2024-03-07T09:54:48;12.20;;;6.68;;
52041;SDS011;38052;45.944;13.624;2024-03-07T09:57:15;10.23;;;6.63;;
52041;SDS011;38052;45.944;13.624;2024-03-07T09:59:42;8.88;;;5.90;;
52041;SDS011;38052;45.944;13.624;2024-03-07T10:02:08;8.95;;;5.78;;
52041;SDS011;38052;45.944;13.624;2024-03-07T10:04:43;9.55;;;6.00;;
52041;SDS011;38052;45.944;13.624;2024-03-07T10:07:13;8.60;;;5.38;;
52041;SDS011;38052;45.944;13.624;2024-03-07T10:09:40;13.82;;;6.90;;
52041;SDS011;38052;45.944;13.624;2024-03-07T10:12:07;9.05;;;5.35;;
52041;SDS011;38052;45.944;13.624;2024-03-07T10:14:37;8.27;;;6.13;;
52041;SDS011;38052;45.944;13.624;2024-03-07T10:17:04;9.00;;;6.32;;
52041;SDS011;38052;45.944;13.624;2024-03-07T10:19:30;8.63;;;6.38;;
52041;SDS011;38052;45.944;13.624;2024-03-07T10:21:57;9.82;;;6.63;;
52041;SDS011;38052;45.944;13.624;2024-03-07T10:24:26;8.63;;;6.40;;
52041;SDS011;38052;45.944;13.624;2024-03-07T10:26:53;6.65;;;5.20;;
52041;SDS011;38052;45.944;13.624;2024-03-07T10:29:23;8.43;;;6.55;;
52041;SDS011;38052;45.944;13.624;2024-03-07T10:31:50;10.80;;;6.00;;
52041;SDS011;38052;45.944;13.624;2024-03-07T10:34:16;12.45;;;7.00;;
52041;SDS011;38052;45.944;13.624;2024-03-07T10:36:43;10.95;;;7.07;;
52041;SDS011;38052;45.944;13.624;2024-03-07T10:39:10;8.68;;;6.13;;
52041;SDS011;38052;45.944;13.624;2024-03-07T10:41:44;8.45;;;6.90;;
52041;SDS011;38052;45.944;13.624;2024-03-07T10:44:17;7.93;;;6.00;;
52041;SDS011;38052;45.944;13.624;2024-03-07T10:46:46;7.80;;;5.90;;
52041;SDS011;38052;45.944;13.624;2024-03-07T10:49:15;10.10;;;6.72;;
52041;SDS011;38052;45.944;13.624;2024-03-07T10:51:44;7.55;;;5.88;;
52041;SDS011;38052;45.944;13.624;2024-03-07T10:54:15;9.75;;;5.57;;
52041;SDS011;38052;45.944;13.624;2024-03-07T10:59:22;7.97;;;5.88;;
52041;SDS011;38052;45.944;13.624;2024-03-07T11:04:19;8.75;;;6.03;;
52041;SDS011;38052;45.944;13.624;2024-03-07T11:06:46;9.10;;;5.85;;
52041;SDS011;38052;45.944;13.624;2024-03-07T11:09:14;7.35;;;5.28;;
52041;SDS011;38052;45.944;13.624;2024-03-07T11:11:48;8.27;;;5.40;;
52041;SDS011;38052;45.944;13.624;2024-03-07T11:14:14;8.65;;;5.63;;
52041;SDS011;38052;45.944;13.624;2024-03-07T11:16:42;7.50;;;6.10;;
52041;SDS011;38052;45.944;13.624;2024-03-07T11:19:24;7.43;;;5.53;;
52041;SDS011;38052;45.944;13.624;2024-03-07T11:21:55;7.95;;;5.60;;
52041;SDS011;38052;45.944;13.624;2024-03-07T11:24:30;8.10;;;6.35;;
52041;SDS011;38052;45.944;13.624;2024-03-07T11:27:02;9.68;;;5.50;;
52041;SDS011;38052;45.944;13.624;2024-03-07T11:32:09;9.45;;;6.18;;
52041;SDS011;38052;45.944;13.624;2024-03-07T11:34:37;9.18;;;6.70;;
52041;SDS011;38052;45.944;13.624;2024-03-07T11:37:07;8.00;;;6.55;;
52041;SDS011;38052;45.944;13.624;2024-03-07T11:39:45;6.80;;;5.95;;
52041;SDS011;38052;45.944;13.624;2024-03-07T11:42:28;9.20;;;6.53;;
52041;SDS011;38052;45.944;13.624;2024-03-07T11:44:55;13.50;;;6.47;;
52041;SDS011;38052;45.944;13.624;2024-03-07T11:47:22;9.73;;;6.32;;
52041;SDS011;38052;45.944;13.624;2024-03-07T11:49:49;8.95;;;6.03;;
52041;SDS011;38052;45.944;13.624;2024-03-07T11:52:17;8.30;;;5.25;;
52041;SDS011;38052;45.944;13.624;2024-03-07T11:54:44;10.73;;;6.15;;
52041;SDS011;38052;45.944;13.624;2024-03-07T11:59:42;10.93;;;8.95;;
52041;SDS011;38052;45.944;13.624;2024-03-07T12:02:12;17.15;;;11.30;;
52041;SDS011;38052;45.944;13.624;2024-03-07T12:04:40;15.98;;;10.70;;
52041;SDS011;38052;45.944;13.624;2024-03-07T12:07:06;14.02;;;10.07;;
52041;SDS011;38052;45.944;13.624;2024-03-07T12:09:35;14.43;;;9.88;;
52041;SDS011;38052;45.944;13.624;2024-03-07T12:12:02;16.67;;;9.73;;
52041;SDS011;38052;45.944;13.624;2024-03-07T12:14:28;14.18;;;9.45;;
52041;SDS011;38052;45.944;13.624;2024-03-07T12:16:55;14.20;;;9.43;;
52041;SDS011;38052;45.944;13.624;2024-03-07T12:19:22;13.75;;;8.68;;
52041;SDS011;38052;45.944;13.624;2024-03-07T12:21:48;11.82;;;8.07;;
52041;SDS011;38052;45.944;13.624;2024-03-07T12:24:14;10.52;;;6.55;;
52041;SDS011;38052;45.944;13.624;2024-03-07T12:26:41;14.20;;;8.55;;
52041;SDS011;38052;45.944;13.624;2024-03-07T12:29:10;13.20;;;7.97;;
52041;SDS011;38052;45.944;13.624;2024-03-07T12:31:38;10.95;;;8.07;;
52041;SDS011;38052;45.944;13.624;2024-03-07T12:34:05;10.95;;;7.15;;
52041;SDS011;38052;45.944;13.624;2024-03-07T12:36:34;10.00;;;7.35;;
52041;SDS011;38052;45.944;13.624;2024-03-07T12:39:21;13.90;;;8.50;;
52041;SDS011;38052;45.944;13.624;2024-03-07T12:41:50;11.65;;;7.60;;
52041;SDS011;38052;45.944;13.624;2024-03-07T12:44:20;9.63;;;6.57;;
52041;SDS011;38052;45.944;13.624;2024-03-07T12:46:53;11.23;;;7.05;;
52041;SDS011;38052;45.944;13.624;2024-03-07T12:49:21;10.95;;;6.45;;
52041;SDS011;38052;45.944;13.624;2024-03-07T12:54:19;9.35;;;6.20;;
52041;SDS011;38052;45.944;13.624;2024-03-07T12:56:45;10.35;;;7.05;;
52041;SDS011;38052;45.944;13.624;2024-03-07T12:59:12;11.23;;;8.57;;
52041;SDS011;38052;45.944;13.624;2024-03-07T13:01:39;15.45;;;8.77;;
52041;SDS011;38052;45.944;13.624;2024-03-07T13:04:09;12.07;;;7.97;;
52041;SDS011;38052;45.944;13.624;2024-03-07T13:06:36;14.15;;;9.45;;
52041;SDS011;38052;45.944;13.624;2024-03-07T13:09:02;13.07;;;8.98;;
52041;SDS011;38052;45.944;13.624;2024-03-07T13:11:35;11.55;;;8.95;;
52041;SDS011;38052;45.944;13.624;2024-03-07T13:14:05;15.88;;;8.80;;
52041;SDS011;38052;45.944;13.624;2024-03-07T13:16:32;13.65;;;9.60;;
52041;SDS011;38052;45.944;13.624;2024-03-07T13:18:58;15.98;;;9.80;;
52041;SDS011;38052;45.944;13.624;2024-03-07T13:21:24;13.15;;;9.25;;
52041;SDS011;38052;45.944;13.624;2024-03-07T13:23:52;12.35;;;8.75;;
52041;SDS011;38052;45.944;13.624;2024-03-07T13:26:20;9.38;;;7.18;;
52041;SDS011;38052;45.944;13.624;2024-03-07T13:28:53;12.02;;;8.48;;
52041;SDS011;38052;45.944;13.624;2024-03-07T13:31:19;14.13;;;9.13;;
52041;SDS011;38052;45.944;13.624;2024-03-07T13:33:45;12.13;;;9.23;;
52041;SDS011;38052;45.944;13.624;2024-03-07T13:36:12;14.05;;;9.23;;
52041;SDS011;38052;45.944;13.624;2024-03-07T13:38:47;13.70;;;8.52;;
52041;SDS011;38052;45.944;13.624;2024-03-07T13:41:14;12.55;;;7.95;;
52041;SDS011;38052;45.944;13.624;2024-03-07T13:43:41;10.57;;;7.35;;
52041;SDS011;38052;45.944;13.624;2024-03-07T13:46:07;10.88;;;6.85;;
52041;SDS011;38052;45.944;13.624;2024-03-07T13:48:33;9.38;;;6.05;;
52041;SDS011;38052;45.944;13.624;2024-03-07T13:51:01;7.65;;;5.40;;
52041;SDS011;38052;45.944;13.624;2024-03-07T14:32:21;9.03;;;4.20;;
52041;SDS011;38052;45.944;13.624;2024-03-07T14:35:02;7.65;;;3.55;;
52041;SDS011;38052;45.944;13.624;2024-03-07T14:40:07;7.60;;;4.35;;
52041;SDS011;38052;45.944;13.624;2024-03-07T14:42:36;8.68;;;4.97;;
52041;SDS011;38052;45.944;13.624;2024-03-07T14:45:03;7.65;;;5.10;;
52041;SDS011;38052;45.944;13.624;2024-03-07T14:47:33;8.03;;;4.83;;
52041;SDS011;38052;45.944;13.624;2024-03-07T14:49:59;7.03;;;5.68;;
52041;SDS011;38052;45.944;13.624;2024-03-07T14:52:26;13.90;;;6.32;;
52041;SDS011;38052;45.944;13.624;2024-03-07T14:54:54;14.45;;;6.80;;
52041;SDS011;38052;45.944;13.624;2024-03-07T14:57:20;11.25;;;5.88;;
52041;SDS011;38052;45.944;13.624;2024-03-07T14:59:48;8.90;;;6.03;;
52041;SDS011;38052;45.944;13.624;2024-03-07T15:02:15;7.53;;;4.60;;
52041;SDS011;38052;45.944;13.624;2024-03-07T15:04:41;7.28;;;4.78;;
52041;SDS011;38052;45.944;13.624;2024-03-07T15:07:08;5.45;;;3.67;;
52041;SDS011;38052;45.944;13.624;2024-03-07T15:09:35;6.40;;;4.25;;
52041;SDS011;38052;45.944;13.624;2024-03-07T15:12:03;6.18;;;5.03;;
52041;SDS011;38052;45.944;13.624;2024-03-07T15:14:31;8.27;;;4.13;;
52041;SDS011;38052;45.944;13.624;2024-03-07T15:16:58;9.02;;;4.25;;
52041;SDS011;38052;45.944;13.624;2024-03-07T15:19:24;9.13;;;5.45;;
52041;SDS011;38052;45.944;13.624;2024-03-07T15:21:51;7.18;;;4.68;;